sensor_id;sensor_type;location;lat;lon;timestamp;temperature;humidity
56869;DHT22;42754;0.000;0.000;2022-08-11T00:00:06;19.80;87.20
56869;DHT22;42754;0.000;0.000;2022-08-11T00:02:35;19.70;87.10
56869;DHT22;42754;0.000;0.000;2022-08-11T00:05:16;19.70;87.50
56869;DHT22;42754;0.000;0.000;2022-08-11T00:07:47;19.50;87.60
56869;DHT22;42754;0.000;0.000;2022-08-11T00:10:17;19.50;87.80
56869;DHT22;42754;0.000;0.000;2022-08-11T00:12:48;19.50;88.00
56869;DHT22;42754;0.000;0.000;2022-08-11T00:15:15;19.40;88.20
56869;DHT22;42754;0.000;0.000;2022-08-11T00:17:41;19.50;88.40
56869;DHT22;42754;0.000;0.000;2022-08-11T00:20:12;19.40;88.20
56869;DHT22;42754;0.000;0.000;2022-08-11T00:22:40;19.40;88.60
56869;DHT22;42754;0.000;0.000;2022-08-11T00:25:20;19.40;88.70
56869;DHT22;42754;0.000;0.000;2022-08-11T00:27:46;19.30;88.50
56869;DHT22;42754;0.000;0.000;2022-08-11T00:30:14;19.30;88.90
56869;DHT22;42754;0.000;0.000;2022-08-11T00:32:42;19.30;89.10
56869;DHT22;42754;0.000;0.000;2022-08-11T00:35:13;19.30;89.40
56869;DHT22;42754;0.000;0.000;2022-08-11T00:37:44;19.20;89.90
56869;DHT22;42754;0.000;0.000;2022-08-11T00:40:18;19.10;89.60
56869;DHT22;42754;0.000;0.000;2022-08-11T00:43:19;19.10;89.50
56869;DHT22;42754;0.000;0.000;2022-08-11T00:48:51;19.00;90.00
56869;DHT22;42754;0.000;0.000;2022-08-11T00:57:21;19.10;90.00
56869;DHT22;42754;0.000;0.000;2022-08-11T01:38:31;18.70;91.10
56869;DHT22;42754;0.000;0.000;2022-08-11T01:46:29;18.60;91.30
56869;DHT22;42754;0.000;0.000;2022-08-11T01:52:17;18.50;91.50
56869;DHT22;42754;0.000;0.000;2022-08-11T01:55:13;18.40;91.60
56869;DHT22;42754;0.000;0.000;2022-08-11T01:57:55;18.40;91.70
56869;DHT22;42754;0.000;0.000;2022-08-11T02:00:28;18.40;91.80
56869;DHT22;42754;0.000;0.000;2022-08-11T02:09:03;18.30;91.90
56869;DHT22;42754;0.000;0.000;2022-08-11T02:11:32;18.30;92.10
56869;DHT22;42754;0.000;0.000;2022-08-11T02:16:57;18.30;92.10
56869;DHT22;42754;0.000;0.000;2022-08-11T02:19:33;18.20;92.20
56869;DHT22;42754;0.000;0.000;2022-08-11T02:22:29;18.20;92.40
56869;DHT22;42754;0.000;0.000;2022-08-11T02:28:04;18.10;92.80
56869;DHT22;42754;0.000;0.000;2022-08-11T02:30:38;18.00;92.90
56869;DHT22;42754;0.000;0.000;2022-08-11T02:33:21;18.00;93.00
56869;DHT22;42754;0.000;0.000;2022-08-11T02:36:05;18.00;92.90
56869;DHT22;42754;0.000;0.000;2022-08-11T02:38:59;18.00;93.20
56869;DHT22;42754;0.000;0.000;2022-08-11T02:44:37;17.90;93.50
56869;DHT22;42754;0.000;0.000;2022-08-11T02:50:19;17.90;93.70
56869;DHT22;42754;0.000;0.000;2022-08-11T02:53:16;18.00;93.50
56869;DHT22;42754;0.000;0.000;2022-08-11T03:01:22;17.90;93.70
56869;DHT22;42754;0.000;0.000;2022-08-11T03:04:04;17.90;93.90
56869;DHT22;42754;0.000;0.000;2022-08-11T03:06:34;17.90;94.10
56869;DHT22;42754;0.000;0.000;2022-08-11T03:09:29;17.80;94.20
56869;DHT22;42754;0.000;0.000;2022-08-11T03:12:14;17.80;94.00
56869;DHT22;42754;0.000;0.000;2022-08-11T03:15:19;17.70;94.20
56869;DHT22;42754;0.000;0.000;2022-08-11T03:18:44;17.60;94.40
56869;DHT22;42754;0.000;0.000;2022-08-11T03:21:27;17.60;94.60
56869;DHT22;42754;0.000;0.000;2022-08-11T03:24:20;17.50;94.90
56869;DHT22;42754;0.000;0.000;2022-08-11T03:27:04;17.60;95.00
56869;DHT22;42754;0.000;0.000;2022-08-11T03:29:36;17.60;95.20
56869;DHT22;42754;0.000;0.000;2022-08-11T03:32:25;17.50;95.00
56869;DHT22;42754;0.000;0.000;2022-08-11T03:34:54;17.40;95.30
56869;DHT22;42754;0.000;0.000;2022-08-11T03:40:34;17.40;95.40
56869;DHT22;42754;0.000;0.000;2022-08-11T03:46:18;17.30;96.00
56869;DHT22;42754;0.000;0.000;2022-08-11T03:55:09;17.30;96.30
56869;DHT22;42754;0.000;0.000;2022-08-11T03:57:44;17.30;96.70
56869;DHT22;42754;0.000;0.000;2022-08-11T04:16:42;17.20;97.30
56869;DHT22;42754;0.000;0.000;2022-08-11T04:38:08;17.10;98.30
56869;DHT22;42754;0.000;0.000;2022-08-11T04:40:48;17.10;98.50
56869;DHT22;42754;0.000;0.000;2022-08-11T04:46:20;17.10;98.80
56869;DHT22;42754;0.000;0.000;2022-08-11T04:56:05;17.40;98.60
56869;DHT22;42754;0.000;0.000;2022-08-11T04:58:59;17.30;98.70
56869;DHT22;42754;0.000;0.000;2022-08-11T05:02:25;17.30;99.10
56869;DHT22;42754;0.000;0.000;2022-08-11T05:08:20;17.70;98.90
56869;DHT22;42754;0.000;0.000;2022-08-11T05:11:19;17.80;98.60
56869;DHT22;42754;0.000;0.000;2022-08-11T05:13:50;18.00;98.70
56869;DHT22;42754;0.000;0.000;2022-08-11T05:16:54;18.10;98.30
56869;DHT22;42754;0.000;0.000;2022-08-11T05:19:44;18.00;98.50
56869;DHT22;42754;0.000;0.000;2022-08-11T05:22:30;18.00;98.70
56869;DHT22;42754;0.000;0.000;2022-08-11T05:25:17;18.20;98.60
56869;DHT22;42754;0.000;0.000;2022-08-11T05:28:08;18.60;98.30
56869;DHT22;42754;0.000;0.000;2022-08-11T05:30:57;18.90;97.80
56869;DHT22;42754;0.000;0.000;2022-08-11T05:34:00;19.10;97.30
56869;DHT22;42754;0.000;0.000;2022-08-11T05:36:52;19.40;97.10
56869;DHT22;42754;0.000;0.000;2022-08-11T05:39:31;19.70;96.30
56869;DHT22;42754;0.000;0.000;2022-08-11T05:42:19;20.00;95.80
56869;DHT22;42754;0.000;0.000;2022-08-11T05:45:11;20.40;95.50
56869;DHT22;42754;0.000;0.000;2022-08-11T05:47:56;21.60;93.70
56869;DHT22;42754;0.000;0.000;2022-08-11T05:50:52;22.30;92.40
56869;DHT22;42754;0.000;0.000;2022-08-11T05:54:06;22.70;91.80
56869;DHT22;42754;0.000;0.000;2022-08-11T05:56:53;23.20;90.80
56869;DHT22;42754;0.000;0.000;2022-08-11T05:59:22;23.40;90.60
56869;DHT22;42754;0.000;0.000;2022-08-11T06:01:49;23.60;90.10
56869;DHT22;42754;0.000;0.000;2022-08-11T06:04:24;23.90;89.50
56869;DHT22;42754;0.000;0.000;2022-08-11T06:06:59;24.40;88.20
56869;DHT22;42754;0.000;0.000;2022-08-11T06:11:51;24.90;86.80
56869;DHT22;42754;0.000;0.000;2022-08-11T06:14:19;25.00;86.30
56869;DHT22;42754;0.000;0.000;2022-08-11T06:16:49;25.20;83.80
56869;DHT22;42754;0.000;0.000;2022-08-11T06:19:18;25.50;83.10
56869;DHT22;42754;0.000;0.000;2022-08-11T06:21:47;25.80;82.40
56869;DHT22;42754;0.000;0.000;2022-08-11T06:24:14;25.80;82.10
56869;DHT22;42754;0.000;0.000;2022-08-11T06:26:46;26.10;82.40
56869;DHT22;42754;0.000;0.000;2022-08-11T06:29:12;26.50;79.60
56869;DHT22;42754;0.000;0.000;2022-08-11T06:31:53;26.40;79.30
56869;DHT22;42754;0.000;0.000;2022-08-11T06:37:29;26.60;79.30
56869;DHT22;42754;0.000;0.000;2022-08-11T06:40:08;26.90;80.00
56869;DHT22;42754;0.000;0.000;2022-08-11T06:42:53;27.00;78.50
56869;DHT22;42754;0.000;0.000;2022-08-11T06:48:16;26.90;77.90
56869;DHT22;42754;0.000;0.000;2022-08-11T06:50:51;26.80;78.10
56869;DHT22;42754;0.000;0.000;2022-08-11T06:56:05;26.60;77.50
56869;DHT22;42754;0.000;0.000;2022-08-11T06:58:50;26.40;78.70
56869;DHT22;42754;0.000;0.000;2022-08-11T07:13:09;25.10;81.60
56869;DHT22;42754;0.000;0.000;2022-08-11T07:15:56;24.90;81.10
56869;DHT22;42754;0.000;0.000;2022-08-11T07:18:32;24.90;82.20
56869;DHT22;42754;0.000;0.000;2022-08-11T07:21:26;24.90;81.10
56869;DHT22;42754;0.000;0.000;2022-08-11T07:24:15;24.70;81.60
56869;DHT22;42754;0.000;0.000;2022-08-11T07:27:00;24.70;81.60
56869;DHT22;42754;0.000;0.000;2022-08-11T07:29:49;24.50;82.10
56869;DHT22;42754;0.000;0.000;2022-08-11T07:32:26;24.30;81.50
56869;DHT22;42754;0.000;0.000;2022-08-11T07:35:10;24.30;82.90
56869;DHT22;42754;0.000;0.000;2022-08-11T07:37:42;24.40;82.00
56869;DHT22;42754;0.000;0.000;2022-08-11T07:40:09;24.40;82.00
56869;DHT22;42754;0.000;0.000;2022-08-11T07:42:36;24.40;82.30
56869;DHT22;42754;0.000;0.000;2022-08-11T07:45:07;24.50;81.10
56869;DHT22;42754;0.000;0.000;2022-08-11T07:47:52;24.50;81.70
56869;DHT22;42754;0.000;0.000;2022-08-11T07:50:42;24.60;82.10
56869;DHT22;42754;0.000;0.000;2022-08-11T07:53:28;24.50;81.10
56869;DHT22;42754;0.000;0.000;2022-08-11T07:55:56;24.70;79.80
56869;DHT22;42754;0.000;0.000;2022-08-11T07:58:23;24.70;80.10
56869;DHT22;42754;0.000;0.000;2022-08-11T08:01:08;24.80;80.70
56869;DHT22;42754;0.000;0.000;2022-08-11T08:03:53;24.80;79.80
56869;DHT22;42754;0.000;0.000;2022-08-11T08:06:39;24.80;80.60
56869;DHT22;42754;0.000;0.000;2022-08-11T08:09:25;25.00;78.70
56869;DHT22;42754;0.000;0.000;2022-08-11T08:12:09;25.10;78.70
56869;DHT22;42754;0.000;0.000;2022-08-11T08:14:56;25.30;77.80
56869;DHT22;42754;0.000;0.000;2022-08-11T08:17:43;25.30;77.20
56869;DHT22;42754;0.000;0.000;2022-08-11T08:20:24;25.50;77.40
56869;DHT22;42754;0.000;0.000;2022-08-11T08:22:53;25.70;77.10
56869;DHT22;42754;0.000;0.000;2022-08-11T08:25:23;25.80;76.00
56869;DHT22;42754;0.000;0.000;2022-08-11T08:27:50;26.00;77.50
56869;DHT22;42754;0.000;0.000;2022-08-11T08:30:16;25.90;76.50
56869;DHT22;42754;0.000;0.000;2022-08-11T08:33:01;26.10;75.50
56869;DHT22;42754;0.000;0.000;2022-08-11T08:35:27;26.40;76.40
56869;DHT22;42754;0.000;0.000;2022-08-11T08:37:56;26.80;75.30
56869;DHT22;42754;0.000;0.000;2022-08-11T08:40:22;27.30;73.10
56869;DHT22;42754;0.000;0.000;2022-08-11T08:43:08;27.90;73.50
56869;DHT22;42754;0.000;0.000;2022-08-11T08:45:36;29.00;72.80
56869;DHT22;42754;0.000;0.000;2022-08-11T08:48:05;29.90;70.90
56869;DHT22;42754;0.000;0.000;2022-08-11T08:50:36;30.70;69.80
56869;DHT22;42754;0.000;0.000;2022-08-11T08:53:26;31.30;70.10
56869;DHT22;42754;0.000;0.000;2022-08-11T08:56:01;32.10;67.00
56869;DHT22;42754;0.000;0.000;2022-08-11T08:58:28;32.40;67.30
56869;DHT22;42754;0.000;0.000;2022-08-11T09:00:55;32.90;65.60
56869;DHT22;42754;0.000;0.000;2022-08-11T09:03:22;33.10;64.00
56869;DHT22;42754;0.000;0.000;2022-08-11T09:05:53;33.20;62.90
56869;DHT22;42754;0.000;0.000;2022-08-11T09:08:19;33.40;62.90
56869;DHT22;42754;0.000;0.000;2022-08-11T09:10:47;33.80;62.70
56869;DHT22;42754;0.000;0.000;2022-08-11T09:13:34;33.90;63.10
56869;DHT22;42754;0.000;0.000;2022-08-11T09:16:01;34.50;61.60
56869;DHT22;42754;0.000;0.000;2022-08-11T09:18:27;34.70;61.70
56869;DHT22;42754;0.000;0.000;2022-08-11T09:20:53;35.00;61.90
56869;DHT22;42754;0.000;0.000;2022-08-11T09:23:19;35.40;61.80
56869;DHT22;42754;0.000;0.000;2022-08-11T09:26:03;35.20;60.10
56869;DHT22;42754;0.000;0.000;2022-08-11T09:28:49;35.30;60.90
56869;DHT22;42754;0.000;0.000;2022-08-11T09:31:16;35.20;59.00
56869;DHT22;42754;0.000;0.000;2022-08-11T09:33:42;35.30;59.70
56869;DHT22;42754;0.000;0.000;2022-08-11T09:36:11;35.40;60.10
56869;DHT22;42754;0.000;0.000;2022-08-11T09:38:56;35.40;58.80
56869;DHT22;42754;0.000;0.000;2022-08-11T09:41:42;34.90;58.60
56869;DHT22;42754;0.000;0.000;2022-08-11T09:44:09;35.00;59.10
56869;DHT22;42754;0.000;0.000;2022-08-11T09:46:54;35.30;58.30
56869;DHT22;42754;0.000;0.000;2022-08-11T09:49:23;34.90;58.00
56869;DHT22;42754;0.000;0.000;2022-08-11T09:51:50;35.10;58.60
56869;DHT22;42754;0.000;0.000;2022-08-11T09:54:17;35.50;58.60
56869;DHT22;42754;0.000;0.000;2022-08-11T09:56:44;35.60;57.40
56869;DHT22;42754;0.000;0.000;2022-08-11T09:59:29;35.60;58.20
56869;DHT22;42754;0.000;0.000;2022-08-11T10:02:00;35.60;57.90
56869;DHT22;42754;0.000;0.000;2022-08-11T10:04:30;35.90;57.30
56869;DHT22;42754;0.000;0.000;2022-08-11T10:07:01;35.80;57.20
56869;DHT22;42754;0.000;0.000;2022-08-11T10:09:44;36.20;56.50
56869;DHT22;42754;0.000;0.000;2022-08-11T10:12:34;36.60;56.50
56869;DHT22;42754;0.000;0.000;2022-08-11T10:15:19;36.20;55.20
56869;DHT22;42754;0.000;0.000;2022-08-11T10:20:51;36.10;55.50
56869;DHT22;42754;0.000;0.000;2022-08-11T10:23:19;36.30;55.50
56869;DHT22;42754;0.000;0.000;2022-08-11T10:26:05;36.40;55.60
56869;DHT22;42754;0.000;0.000;2022-08-11T10:28:50;36.70;55.00
56869;DHT22;42754;0.000;0.000;2022-08-11T10:31:18;36.30;54.60
56869;DHT22;42754;0.000;0.000;2022-08-11T10:34:04;36.10;54.70
56869;DHT22;42754;0.000;0.000;2022-08-11T10:36:36;35.50;54.40
56869;DHT22;42754;0.000;0.000;2022-08-11T10:39:14;35.70;54.50
56869;DHT22;42754;0.000;0.000;2022-08-11T10:41:46;36.30;54.70
56869;DHT22;42754;0.000;0.000;2022-08-11T10:44:36;36.70;54.20
56869;DHT22;42754;0.000;0.000;2022-08-11T10:47:04;36.60;54.50
56869;DHT22;42754;0.000;0.000;2022-08-11T10:49:49;36.70;53.90
56869;DHT22;42754;0.000;0.000;2022-08-11T10:52:36;36.70;54.20
56869;DHT22;42754;0.000;0.000;2022-08-11T10:55:22;37.30;52.90
56869;DHT22;42754;0.000;0.000;2022-08-11T10:58:09;37.00;52.20
56869;DHT22;42754;0.000;0.000;2022-08-11T11:00:53;36.50;51.00
56869;DHT22;42754;0.000;0.000;2022-08-11T11:03:29;36.10;51.50
56869;DHT22;42754;0.000;0.000;2022-08-11T11:11:26;35.60;51.40
56869;DHT22;42754;0.000;0.000;2022-08-11T11:14:16;36.30;51.50
56869;DHT22;42754;0.000;0.000;2022-08-11T11:17:04;35.90;52.40
56869;DHT22;42754;0.000;0.000;2022-08-11T11:19:37;36.40;52.20
56869;DHT22;42754;0.000;0.000;2022-08-11T11:22:05;36.10;51.90
56869;DHT22;42754;0.000;0.000;2022-08-11T11:36:54;36.60;50.20
56869;DHT22;42754;0.000;0.000;2022-08-11T11:39:26;36.20;49.70
56869;DHT22;42754;0.000;0.000;2022-08-11T11:41:59;36.80;50.50
56869;DHT22;42754;0.000;0.000;2022-08-11T11:44:26;36.90;50.10
56869;DHT22;42754;0.000;0.000;2022-08-11T11:46:53;36.70;50.50
56869;DHT22;42754;0.000;0.000;2022-08-11T11:49:27;36.70;50.40
56869;DHT22;42754;0.000;0.000;2022-08-11T11:51:55;36.40;50.50
56869;DHT22;42754;0.000;0.000;2022-08-11T11:54:24;36.10;50.50
56869;DHT22;42754;0.000;0.000;2022-08-11T11:56:52;36.40;51.10
56869;DHT22;42754;0.000;0.000;2022-08-11T11:59:23;36.70;50.00
56869;DHT22;42754;0.000;0.000;2022-08-11T12:02:10;36.70;50.50
56869;DHT22;42754;0.000;0.000;2022-08-11T12:04:43;36.50;49.30
56869;DHT22;42754;0.000;0.000;2022-08-11T12:07:10;36.40;49.70
56869;DHT22;42754;0.000;0.000;2022-08-11T12:09:56;36.40;49.60
56869;DHT22;42754;0.000;0.000;2022-08-11T12:12:23;36.70;49.60
56869;DHT22;42754;0.000;0.000;2022-08-11T12:15:08;36.60;49.90
56869;DHT22;42754;0.000;0.000;2022-08-11T12:17:35;36.70;49.80
56869;DHT22;42754;0.000;0.000;2022-08-11T12:20:02;36.40;49.20
56869;DHT22;42754;0.000;0.000;2022-08-11T12:22:29;36.50;50.10
56869;DHT22;42754;0.000;0.000;2022-08-11T12:25:14;36.20;49.10
56869;DHT22;42754;0.000;0.000;2022-08-11T12:28:01;36.30;49.20
56869;DHT22;42754;0.000;0.000;2022-08-11T12:30:27;35.80;48.90
56869;DHT22;42754;0.000;0.000;2022-08-11T12:32:54;35.90;48.60
56869;DHT22;42754;0.000;0.000;2022-08-11T12:35:21;36.00;49.00
56869;DHT22;42754;0.000;0.000;2022-08-11T12:37:51;36.40;48.60
56869;DHT22;42754;0.000;0.000;2022-08-11T12:40:23;36.10;49.00
56869;DHT22;42754;0.000;0.000;2022-08-11T12:43:15;36.50;48.60
56869;DHT22;42754;0.000;0.000;2022-08-11T12:46:03;35.90;48.60
56869;DHT22;42754;0.000;0.000;2022-08-11T12:48:31;35.90;49.80
56869;DHT22;42754;0.000;0.000;2022-08-11T12:51:21;36.10;49.40
56869;DHT22;42754;0.000;0.000;2022-08-11T12:57:06;35.90;49.40
56869;DHT22;42754;0.000;0.000;2022-08-11T12:59:53;36.30;49.40
56869;DHT22;42754;0.000;0.000;2022-08-11T13:02:39;36.00;49.80
56869;DHT22;42754;0.000;0.000;2022-08-11T13:05:24;36.10;49.40
56869;DHT22;42754;0.000;0.000;2022-08-11T13:07:51;35.50;48.60
56869;DHT22;42754;0.000;0.000;2022-08-11T13:10:18;35.30;48.70
56869;DHT22;42754;0.000;0.000;2022-08-11T13:13:07;35.50;49.10
56869;DHT22;42754;0.000;0.000;2022-08-11T13:15:34;35.50;49.40
56869;DHT22;42754;0.000;0.000;2022-08-11T13:18:03;35.50;48.90
56869;DHT22;42754;0.000;0.000;2022-08-11T13:20:32;35.40;49.30
56869;DHT22;42754;0.000;0.000;2022-08-11T13:22:59;35.20;48.70
56869;DHT22;42754;0.000;0.000;2022-08-11T13:25:27;35.40;49.30
56869;DHT22;42754;0.000;0.000;2022-08-11T13:27:58;35.50;49.10
56869;DHT22;42754;0.000;0.000;2022-08-11T13:30:27;35.40;48.80
56869;DHT22;42754;0.000;0.000;2022-08-11T13:33:12;35.60;49.40
56869;DHT22;42754;0.000;0.000;2022-08-11T13:35:41;35.40;48.80
56869;DHT22;42754;0.000;0.000;2022-08-11T13:38:08;35.40;49.60
56869;DHT22;42754;0.000;0.000;2022-08-11T13:40:38;35.40;49.60
56869;DHT22;42754;0.000;0.000;2022-08-11T13:43:05;35.60;50.00
56869;DHT22;42754;0.000;0.000;2022-08-11T13:45:32;35.60;50.00
56869;DHT22;42754;0.000;0.000;2022-08-11T13:48:00;35.50;50.30
56869;DHT22;42754;0.000;0.000;2022-08-11T13:50:27;35.20;48.20
56869;DHT22;42754;0.000;0.000;2022-08-11T13:53:14;35.00;48.80
56869;DHT22;42754;0.000;0.000;2022-08-11T13:55:42;34.50;49.30
56869;DHT22;42754;0.000;0.000;2022-08-11T13:58:12;34.90;49.20
56869;DHT22;42754;0.000;0.000;2022-08-11T14:00:38;35.00;48.70
56869;DHT22;42754;0.000;0.000;2022-08-11T14:03:08;34.80;49.00
56869;DHT22;42754;0.000;0.000;2022-08-11T14:05:48;34.90;50.10
56869;DHT22;42754;0.000;0.000;2022-08-11T14:08:18;35.00;49.70
56869;DHT22;42754;0.000;0.000;2022-08-11T14:10:48;34.90;49.20
56869;DHT22;42754;0.000;0.000;2022-08-11T14:13:37;34.60;49.10
56869;DHT22;42754;0.000;0.000;2022-08-11T14:16:10;34.50;49.60
56869;DHT22;42754;0.000;0.000;2022-08-11T14:18:42;34.20;49.70
56869;DHT22;42754;0.000;0.000;2022-08-11T14:21:13;34.30;49.60
56869;DHT22;42754;0.000;0.000;2022-08-11T14:24:15;34.30;49.70
56869;DHT22;42754;0.000;0.000;2022-08-11T14:26:42;34.40;49.40
56869;DHT22;42754;0.000;0.000;2022-08-11T14:29:12;34.50;48.90
56869;DHT22;42754;0.000;0.000;2022-08-11T14:32:00;34.40;49.30
56869;DHT22;42754;0.000;0.000;2022-08-11T14:34:28;34.40;48.90
56869;DHT22;42754;0.000;0.000;2022-08-11T14:37:04;34.20;49.50
56869;DHT22;42754;0.000;0.000;2022-08-11T14:39:33;34.20;49.70
56869;DHT22;42754;0.000;0.000;2022-08-11T14:42:06;34.00;49.10
56869;DHT22;42754;0.000;0.000;2022-08-11T14:44:55;33.90;49.80
56869;DHT22;42754;0.000;0.000;2022-08-11T14:47:42;34.00;49.70
56869;DHT22;42754;0.000;0.000;2022-08-11T14:50:19;34.00;49.40
56869;DHT22;42754;0.000;0.000;2022-08-11T14:53:05;34.10;48.90
56869;DHT22;42754;0.000;0.000;2022-08-11T14:55:35;34.00;49.50
56869;DHT22;42754;0.000;0.000;2022-08-11T14:58:21;33.70;48.90
56869;DHT22;42754;0.000;0.000;2022-08-11T15:00:56;33.80;49.20
56869;DHT22;42754;0.000;0.000;2022-08-11T15:03:24;33.60;49.20
56869;DHT22;42754;0.000;0.000;2022-08-11T15:05:56;33.70;48.90
56869;DHT22;42754;0.000;0.000;2022-08-11T15:08:24;33.60;49.90
56869;DHT22;42754;0.000;0.000;2022-08-11T15:11:11;33.60;49.40
56869;DHT22;42754;0.000;0.000;2022-08-11T15:14:01;33.70;50.50
56869;DHT22;42754;0.000;0.000;2022-08-11T15:16:27;33.70;50.20
56869;DHT22;42754;0.000;0.000;2022-08-11T15:19:13;33.60;49.50
56869;DHT22;42754;0.000;0.000;2022-08-11T15:21:40;33.60;49.90
56869;DHT22;42754;0.000;0.000;2022-08-11T15:24:24;33.50;49.30
56869;DHT22;42754;0.000;0.000;2022-08-11T15:26:51;33.30;49.10
56869;DHT22;42754;0.000;0.000;2022-08-11T15:29:38;33.20;48.70
56869;DHT22;42754;0.000;0.000;2022-08-11T15:32:25;33.30;49.30
56869;DHT22;42754;0.000;0.000;2022-08-11T15:35:11;33.20;49.50
56869;DHT22;42754;0.000;0.000;2022-08-11T15:38:00;33.30;50.10
56869;DHT22;42754;0.000;0.000;2022-08-11T15:40:29;33.20;50.00
56869;DHT22;42754;0.000;0.000;2022-08-11T15:43:48;33.20;49.90
56869;DHT22;42754;0.000;0.000;2022-08-11T15:46:41;33.00;50.30
56869;DHT22;42754;0.000;0.000;2022-08-11T15:49:12;33.00;50.50
56869;DHT22;42754;0.000;0.000;2022-08-11T15:51:45;33.00;50.70
56869;DHT22;42754;0.000;0.000;2022-08-11T15:54:18;33.00;51.10
56869;DHT22;42754;0.000;0.000;2022-08-11T15:56:47;32.80;50.90
56869;DHT22;42754;0.000;0.000;2022-08-11T15:59:15;32.90;50.90
56869;DHT22;42754;0.000;0.000;2022-08-11T16:02:02;32.80;50.90
56869;DHT22;42754;0.000;0.000;2022-08-11T16:04:41;32.90;51.10
56869;DHT22;42754;0.000;0.000;2022-08-11T16:07:20;32.90;51.30
56869;DHT22;42754;0.000;0.000;2022-08-11T16:10:15;32.80;51.20
56869;DHT22;42754;0.000;0.000;2022-08-11T16:13:03;32.80;51.50
56869;DHT22;42754;0.000;0.000;2022-08-11T16:15:46;32.50;51.70
56869;DHT22;42754;0.000;0.000;2022-08-11T16:18:38;32.50;51.80
56869;DHT22;42754;0.000;0.000;2022-08-11T16:21:14;32.50;52.50
56869;DHT22;42754;0.000;0.000;2022-08-11T16:23:44;32.30;52.10
56869;DHT22;42754;0.000;0.000;2022-08-11T16:26:12;32.20;52.50
56869;DHT22;42754;0.000;0.000;2022-08-11T16:28:39;32.20;53.70
56869;DHT22;42754;0.000;0.000;2022-08-11T16:31:09;32.20;52.70
56869;DHT22;42754;0.000;0.000;2022-08-11T16:33:41;32.10;52.10
56869;DHT22;42754;0.000;0.000;2022-08-11T16:36:08;32.10;52.50
56869;DHT22;42754;0.000;0.000;2022-08-11T16:38:54;32.00;51.70
56869;DHT22;42754;0.000;0.000;2022-08-11T16:41:22;32.00;51.60
56869;DHT22;42754;0.000;0.000;2022-08-11T16:44:13;32.00;51.60
56869;DHT22;42754;0.000;0.000;2022-08-11T16:46:58;31.90;52.00
56869;DHT22;42754;0.000;0.000;2022-08-11T16:51:57;31.80;51.30
56869;DHT22;42754;0.000;0.000;2022-08-11T16:54:31;31.90;52.00
56869;DHT22;42754;0.000;0.000;2022-08-11T16:56:58;31.80;51.20
56869;DHT22;42754;0.000;0.000;2022-08-11T16:59:45;31.80;51.10
56869;DHT22;42754;0.000;0.000;2022-08-11T17:02:15;31.80;51.10
56869;DHT22;42754;0.000;0.000;2022-08-11T17:05:02;31.80;50.60
56869;DHT22;42754;0.000;0.000;2022-08-11T17:07:50;31.70;51.20
56869;DHT22;42754;0.000;0.000;2022-08-11T17:10:40;31.80;51.40
56869;DHT22;42754;0.000;0.000;2022-08-11T17:13:50;31.70;51.20
56869;DHT22;42754;0.000;0.000;2022-08-11T17:16:21;31.60;51.80
56869;DHT22;42754;0.000;0.000;2022-08-11T17:19:02;31.50;51.20
56869;DHT22;42754;0.000;0.000;2022-08-11T17:21:36;31.50;51.50
56869;DHT22;42754;0.000;0.000;2022-08-11T17:24:24;31.50;51.50
56869;DHT22;42754;0.000;0.000;2022-08-11T17:26:51;31.30;51.10
56869;DHT22;42754;0.000;0.000;2022-08-11T17:29:29;31.20;51.60
56869;DHT22;42754;0.000;0.000;2022-08-11T17:32:02;31.20;51.80
56869;DHT22;42754;0.000;0.000;2022-08-11T17:34:49;31.20;51.90
56869;DHT22;42754;0.000;0.000;2022-08-11T17:37:42;31.10;52.20
56869;DHT22;42754;0.000;0.000;2022-08-11T17:40:10;31.00;52.40
56869;DHT22;42754;0.000;0.000;2022-08-11T17:42:37;31.00;52.50
56869;DHT22;42754;0.000;0.000;2022-08-11T17:45:23;31.00;52.70
56869;DHT22;42754;0.000;0.000;2022-08-11T17:48:08;31.00;52.60
56869;DHT22;42754;0.000;0.000;2022-08-11T17:50:57;30.80;53.40
56869;DHT22;42754;0.000;0.000;2022-08-11T17:53:24;30.80;53.50
56869;DHT22;42754;0.000;0.000;2022-08-11T17:56:09;30.70;52.90
56869;DHT22;42754;0.000;0.000;2022-08-11T17:58:59;30.60;53.50
56869;DHT22;42754;0.000;0.000;2022-08-11T18:01:45;30.60;53.80
56869;DHT22;42754;0.000;0.000;2022-08-11T18:04:12;30.40;53.40
56869;DHT22;42754;0.000;0.000;2022-08-11T18:06:39;30.40;53.70
56869;DHT22;42754;0.000;0.000;2022-08-11T18:09:19;30.30;54.20
56869;DHT22;42754;0.000;0.000;2022-08-11T18:12:06;30.30;54.60
56869;DHT22;42754;0.000;0.000;2022-08-11T18:14:53;30.20;54.00
56869;DHT22;42754;0.000;0.000;2022-08-11T18:17:39;30.10;54.10
56869;DHT22;42754;0.000;0.000;2022-08-11T18:20:25;30.00;54.70
56869;DHT22;42754;0.000;0.000;2022-08-11T18:23:15;29.90;54.30
56869;DHT22;42754;0.000;0.000;2022-08-11T18:26:02;29.80;55.80
56869;DHT22;42754;0.000;0.000;2022-08-11T18:28:50;29.70;55.10
56869;DHT22;42754;0.000;0.000;2022-08-11T18:31:43;29.60;55.30
56869;DHT22;42754;0.000;0.000;2022-08-11T18:34:34;29.50;55.10
56869;DHT22;42754;0.000;0.000;2022-08-11T18:37:26;29.40;55.50
56869;DHT22;42754;0.000;0.000;2022-08-11T18:40:15;29.30;55.20
56869;DHT22;42754;0.000;0.000;2022-08-11T18:43:04;29.20;55.70
56869;DHT22;42754;0.000;0.000;2022-08-11T18:45:51;29.10;55.50
56869;DHT22;42754;0.000;0.000;2022-08-11T18:48:38;29.00;55.60
56869;DHT22;42754;0.000;0.000;2022-08-11T18:51:25;28.90;55.70
56869;DHT22;42754;0.000;0.000;2022-08-11T18:54:12;28.80;56.60
56869;DHT22;42754;0.000;0.000;2022-08-11T18:57:00;28.70;56.60
56869;DHT22;42754;0.000;0.000;2022-08-11T18:59:46;28.70;56.30
56869;DHT22;42754;0.000;0.000;2022-08-11T19:02:34;28.60;56.40
56869;DHT22;42754;0.000;0.000;2022-08-11T19:05:21;28.40;56.60
56869;DHT22;42754;0.000;0.000;2022-08-11T19:08:07;28.40;57.10
56869;DHT22;42754;0.000;0.000;2022-08-11T19:10:53;28.30;57.00
56869;DHT22;42754;0.000;0.000;2022-08-11T19:13:40;28.20;57.20
56869;DHT22;42754;0.000;0.000;2022-08-11T19:16:25;28.20;57.70
56869;DHT22;42754;0.000;0.000;2022-08-11T19:19:12;28.10;57.70
56869;DHT22;42754;0.000;0.000;2022-08-11T19:21:59;28.00;57.60
56869;DHT22;42754;0.000;0.000;2022-08-11T19:24:46;27.90;57.80
56869;DHT22;42754;0.000;0.000;2022-08-11T19:27:31;27.80;59.60
56869;DHT22;42754;0.000;0.000;2022-08-11T19:30:16;27.70;60.00
56869;DHT22;42754;0.000;0.000;2022-08-11T19:33:01;27.60;61.70
56869;DHT22;42754;0.000;0.000;2022-08-11T19:35:46;27.30;62.90
56869;DHT22;42754;0.000;0.000;2022-08-11T19:38:32;27.10;63.20
56869;DHT22;42754;0.000;0.000;2022-08-11T19:41:17;26.90;64.20
56869;DHT22;42754;0.000;0.000;2022-08-11T19:44:03;26.80;65.50
56869;DHT22;42754;0.000;0.000;2022-08-11T19:46:50;26.60;65.20
56869;DHT22;42754;0.000;0.000;2022-08-11T19:49:36;26.50;65.40
56869;DHT22;42754;0.000;0.000;2022-08-11T19:52:21;26.30;65.20
56869;DHT22;42754;0.000;0.000;2022-08-11T19:55:06;26.20;66.40
56869;DHT22;42754;0.000;0.000;2022-08-11T19:57:52;26.20;66.30
56869;DHT22;42754;0.000;0.000;2022-08-11T20:00:37;26.10;65.00
56869;DHT22;42754;0.000;0.000;2022-08-11T20:03:22;26.00;65.70
56869;DHT22;42754;0.000;0.000;2022-08-11T20:06:07;25.90;65.70